sensor_id;sensor_type;location;lat;lon;timestamp;P1;durP1;ratioP1;P2;durP2;ratioP2
14187;SDS011;7175;51.978;5.330;2023-03-01T00:01:20;21.87;;;20.07;;
14187;SDS011;7175;51.978;5.330;2023-03-01T00:03:49;20.33;;;18.93;;
14187;SDS011;7175;51.978;5.330;2023-03-01T00:06:18;20.53;;;19.13;;
14187;SDS011;7175;51.978;5.330;2023-03-01T00:08:47;20.73;;;19.33;;
14187;SDS011;7175;51.978;5.330;2023-03-01T00:11:16;20.90;;;19.50;;
14187;SDS011;7175;51.978;5.330;2023-03-01T00:13:46;21.37;;;19.87;;
14187;SDS011;7175;51.978;5.330;2023-03-01T00:16:16;21.33;;;19.83;;
14187;SDS011;7175;51.978;5.330;2023-03-01T00:18:47;22.13;;;20.63;;
14187;SDS011;7175;51.978;5.330;2023-03-01T00:21:17;21.63;;;20.13;;
14187;SDS011;7175;51.978;5.330;2023-03-01T00:23:46;21.23;;;19.83;;
14187;SDS011;7175;51.978;5.330;2023-03-01T00:26:16;22.73;;;21.23;;
14187;SDS011;7175;51.978;5.330;2023-03-01T00:28:45;23.23;;;21.63;;
14187;SDS011;7175;51.978;5.330;2023-03-01T00:31:14;22.33;;;20.83;;
14187;SDS011;7175;51.978;5.330;2023-03-01T00:33:45;21.67;;;20.17;;
14187;SDS011;7175;51.978;5.330;2023-03-01T00:36:14;21.70;;;20.20;;
14187;SDS011;7175;51.978;5.330;2023-03-01T00:38:43;22.17;;;20.67;;
14187;SDS011;7175;51.978;5.330;2023-03-01T00:41:13;22.27;;;20.77;;
14187;SDS011;7175;51.978;5.330;2023-03-01T00:43:42;22.47;;;20.97;;
14187;SDS011;7175;51.978;5.330;2023-03-01T00:46:11;22.53;;;20.93;;
14187;SDS011;7175;51.978;5.330;2023-03-01T00:48:41;23.23;;;21.63;;
14187;SDS011;7175;51.978;5.330;2023-03-01T00:51:13;23.07;;;21.47;;
14187;SDS011;7175;51.978;5.330;2023-03-01T00:53:42;24.07;;;22.37;;
14187;SDS011;7175;51.978;5.330;2023-03-01T00:56:11;23.20;;;21.60;;
14187;SDS011;7175;51.978;5.330;2023-03-01T00:58:41;22.70;;;21.10;;
14187;SDS011;7175;51.978;5.330;2023-03-01T01:01:10;23.00;;;21.40;;
14187;SDS011;7175;51.978;5.330;2023-03-01T01:03:45;22.27;;;20.67;;
14187;SDS011;7175;51.978;5.330;2023-03-01T01:06:17;22.10;;;20.50;;
14187;SDS011;7175;51.978;5.330;2023-03-01T01:08:47;23.10;;;21.50;;
14187;SDS011;7175;51.978;5.330;2023-03-01T01:11:16;23.40;;;21.70;;
14187;SDS011;7175;51.978;5.330;2023-03-01T01:13:45;22.87;;;21.27;;
14187;SDS011;7175;51.978;5.330;2023-03-01T01:16:15;23.20;;;21.60;;
14187;SDS011;7175;51.978;5.330;2023-03-01T01:18:44;23.10;;;21.50;;
14187;SDS011;7175;51.978;5.330;2023-03-01T01:21:14;24.13;;;22.43;;
14187;SDS011;7175;51.978;5.330;2023-03-01T01:23:44;24.03;;;22.33;;
14187;SDS011;7175;51.978;5.330;2023-03-01T01:26:13;24.07;;;22.37;;
14187;SDS011;7175;51.978;5.330;2023-03-01T01:28:43;23.87;;;22.17;;
14187;SDS011;7175;51.978;5.330;2023-03-01T01:31:12;26.17;;;24.27;;
14187;SDS011;7175;51.978;5.330;2023-03-01T01:33:40;25.70;;;23.90;;
14187;SDS011;7175;51.978;5.330;2023-03-01T01:36:08;23.97;;;22.27;;
14187;SDS011;7175;51.978;5.330;2023-03-01T01:38:37;24.70;;;23.00;;
14187;SDS011;7175;51.978;5.330;2023-03-01T01:41:07;24.13;;;22.43;;
14187;SDS011;7175;51.978;5.330;2023-03-01T01:43:39;24.83;;;23.03;;
14187;SDS011;7175;51.978;5.330;2023-03-01T01:46:10;24.90;;;23.10;;
14187;SDS011;7175;51.978;5.330;2023-03-01T01:48:46;24.60;;;22.80;;
14187;SDS011;7175;51.978;5.330;2023-03-01T01:51:17;25.43;;;23.63;;
14187;SDS011;7175;51.978;5.330;2023-03-01T01:53:51;26.20;;;24.40;;
14187;SDS011;7175;51.978;5.330;2023-03-01T01:56:25;26.23;;;24.33;;
14187;SDS011;7175;51.978;5.330;2023-03-01T01:58:56;26.70;;;24.80;;
14187;SDS011;7175;51.978;5.330;2023-03-01T02:01:25;26.60;;;24.70;;
14187;SDS011;7175;51.978;5.330;2023-03-01T02:03:53;26.93;;;25.03;;
14187;SDS011;7175;51.978;5.330;2023-03-01T02:06:21;26.60;;;24.70;;
14187;SDS011;7175;51.978;5.330;2023-03-01T02:08:57;27.20;;;25.30;;
14187;SDS011;7175;51.978;5.330;2023-03-01T02:11:28;27.83;;;25.87;;
14187;SDS011;7175;51.978;5.330;2023-03-01T02:13:57;31.00;;;28.90;;
14187;SDS011;7175;51.978;5.330;2023-03-01T02:16:26;32.07;;;28.27;;
14187;SDS011;7175;51.978;5.330;2023-03-01T02:18:56;30.40;;;28.30;;
14187;SDS011;7175;51.978;5.330;2023-03-01T02:21:35;32.10;;;29.90;;
14187;SDS011;7175;51.978;5.330;2023-03-01T02:24:12;31.53;;;29.37;;
14187;SDS011;7175;51.978;5.330;2023-03-01T02:26:48;32.27;;;30.07;;
14187;SDS011;7175;51.978;5.330;2023-03-01T02:29:21;33.50;;;31.20;;
14187;SDS011;7175;51.978;5.330;2023-03-01T02:31:49;34.23;;;31.93;;
14187;SDS011;7175;51.978;5.330;2023-03-01T02:34:20;34.00;;;31.70;;
14187;SDS011;7175;51.978;5.330;2023-03-01T02:36:53;34.10;;;31.80;;
14187;SDS011;7175;51.978;5.330;2023-03-01T02:39:23;34.10;;;31.80;;
14187;SDS011;7175;51.978;5.330;2023-03-01T02:41:54;35.83;;;33.43;;
14187;SDS011;7175;51.978;5.330;2023-03-01T02:44:25;36.00;;;33.60;;
14187;SDS011;7175;51.978;5.330;2023-03-01T02:46:54;37.90;;;35.40;;
14187;SDS011;7175;51.978;5.330;2023-03-01T02:49:25;37.23;;;34.83;;
14187;SDS011;7175;51.978;5.330;2023-03-01T02:52:07;37.47;;;35.07;;
14187;SDS011;7175;51.978;5.330;2023-03-01T02:54:46;38.57;;;36.07;;
14187;SDS011;7175;51.978;5.330;2023-03-01T02:57:18;39.03;;;36.53;;
14187;SDS011;7175;51.978;5.330;2023-03-01T02:59:49;38.23;;;35.73;;
14187;SDS011;7175;51.978;5.330;2023-03-01T03:02:19;39.40;;;36.90;;
14187;SDS011;7175;51.978;5.330;2023-03-01T03:05:03;38.97;;;36.47;;
14187;SDS011;7175;51.978;5.330;2023-03-01T03:07:35;39.67;;;37.07;;
14187;SDS011;7175;51.978;5.330;2023-03-01T03:10:06;40.23;;;37.63;;
14187;SDS011;7175;51.978;5.330;2023-03-01T03:12:37;42.63;;;39.93;;
14187;SDS011;7175;51.978;5.330;2023-03-01T03:15:08;45.60;;;42.80;;
14187;SDS011;7175;51.978;5.330;2023-03-01T03:17:39;47.73;;;44.83;;
14187;SDS011;7175;51.978;5.330;2023-03-01T03:20:12;49.20;;;46.20;;
14187;SDS011;7175;51.978;5.330;2023-03-01T03:23:02;54.43;;;51.23;;
14187;SDS011;7175;51.978;5.330;2023-03-01T03:25:30;57.27;;;53.87;;
14187;SDS011;7175;51.978;5.330;2023-03-01T03:27:59;59.60;;;56.10;;
14187;SDS011;7175;51.978;5.330;2023-03-01T03:30:29;62.43;;;58.83;;
14187;SDS011;7175;51.978;5.330;2023-03-01T03:32:58;69.97;;;66.07;;
14187;SDS011;7175;51.978;5.330;2023-03-01T03:35:28;70.57;;;66.67;;
14187;SDS011;7175;51.978;5.330;2023-03-01T03:37:57;74.40;;;70.30;;
14187;SDS011;7175;51.978;5.330;2023-03-01T03:40:30;77.37;;;73.17;;
14187;SDS011;7175;51.978;5.330;2023-03-01T03:43:01;81.90;;;77.50;;
14187;SDS011;7175;51.978;5.330;2023-03-01T03:45:31;83.97;;;79.47;;
14187;SDS011;7175;51.978;5.330;2023-03-01T03:48:00;84.77;;;80.27;;
14187;SDS011;7175;51.978;5.330;2023-03-01T03:50:28;83.47;;;78.97;;
14187;SDS011;7175;51.978;5.330;2023-03-01T03:52:56;85.17;;;80.57;;
14187;SDS011;7175;51.978;5.330;2023-03-01T03:55:27;87.80;;;83.10;;
14187;SDS011;7175;51.978;5.330;2023-03-01T03:57:57;88.53;;;83.73;;
14187;SDS011;7175;51.978;5.330;2023-03-01T04:00:28;90.07;;;85.27;;
14187;SDS011;7175;51.978;5.330;2023-03-01T04:02:57;91.23;;;86.40;;
14187;SDS011;7175;51.978;5.330;2023-03-01T04:05:27;90.10;;;85.30;;
14187;SDS011;7175;51.978;5.330;2023-03-01T04:07:56;87.47;;;82.77;;
14187;SDS011;7175;51.978;5.330;2023-03-01T04:10:34;86.50;;;81.90;;
14187;SDS011;7175;51.978;5.330;2023-03-01T04:13:04;85.90;;;81.30;;
14187;SDS011;7175;51.978;5.330;2023-03-01T04:15:34;85.83;;;81.23;;
14187;SDS011;7175;51.978;5.330;2023-03-01T04:18:04;86.10;;;81.50;;
14187;SDS011;7175;51.978;5.330;2023-03-01T04:20:33;83.87;;;79.37;;
14187;SDS011;7175;51.978;5.330;2023-03-01T04:23:04;85.80;;;81.30;;
14187;SDS011;7175;51.978;5.330;2023-03-01T04:25:39;83.13;;;78.67;;
14187;SDS011;7175;51.978;5.330;2023-03-01T04:28:09;81.87;;;77.47;;
14187;SDS011;7175;51.978;5.330;2023-03-01T04:30:37;79.80;;;75.50;;
14187;SDS011;7175;51.978;5.330;2023-03-01T04:33:09;80.00;;;75.63;;
14187;SDS011;7175;51.978;5.330;2023-03-01T04:35:38;79.67;;;75.37;;
14187;SDS011;7175;51.978;5.330;2023-03-01T04:38:07;78.70;;;74.40;;
14187;SDS011;7175;51.978;5.330;2023-03-01T04:40:36;79.27;;;74.97;;
14187;SDS011;7175;51.978;5.330;2023-03-01T04:43:04;79.20;;;74.90;;
14187;SDS011;7175;51.978;5.330;2023-03-01T04:45:32;79.47;;;75.07;;
14187;SDS011;7175;51.978;5.330;2023-03-01T04:48:02;81.00;;;76.60;;
14187;SDS011;7175;51.978;5.330;2023-03-01T04:50:32;81.93;;;77.53;;
14187;SDS011;7175;51.978;5.330;2023-03-01T04:53:01;79.10;;;74.80;;
14187;SDS011;7175;51.978;5.330;2023-03-01T04:55:29;78.47;;;74.17;;
14187;SDS011;7175;51.978;5.330;2023-03-01T04:57:57;78.00;;;73.70;;
14187;SDS011;7175;51.978;5.330;2023-03-01T05:00:26;75.47;;;71.27;;
14187;SDS011;7175;51.978;5.330;2023-03-01T05:02:55;74.53;;;70.43;;
14187;SDS011;7175;51.978;5.330;2023-03-01T05:05:25;72.47;;;68.40;;
14187;SDS011;7175;51.978;5.330;2023-03-01T05:07:57;70.83;;;66.83;;
14187;SDS011;7175;51.978;5.330;2023-03-01T05:10:27;72.63;;;68.53;;
14187;SDS011;7175;51.978;5.330;2023-03-01T05:12:59;71.00;;;67.00;;
14187;SDS011;7175;51.978;5.330;2023-03-01T05:15:28;71.50;;;67.50;;
14187;SDS011;7175;51.978;5.330;2023-03-01T05:17:58;68.43;;;64.47;;
14187;SDS011;7175;51.978;5.330;2023-03-01T05:20:27;66.90;;;63.00;;
14187;SDS011;7175;51.978;5.330;2023-03-01T05:22:58;64.83;;;61.03;;
14187;SDS011;7175;51.978;5.330;2023-03-01T05:25:32;64.27;;;60.47;;
14187;SDS011;7175;51.978;5.330;2023-03-01T05:28:07;63.57;;;59.87;;
14187;SDS011;7175;51.978;5.330;2023-03-01T05:30:39;61.53;;;57.93;;
14187;SDS011;7175;51.978;5.330;2023-03-01T05:33:07;61.40;;;57.80;;
14187;SDS011;7175;51.978;5.330;2023-03-01T05:35:39;57.10;;;53.70;;
14187;SDS011;7175;51.978;5.330;2023-03-01T05:38:10;58.03;;;54.53;;
14187;SDS011;7175;51.978;5.330;2023-03-01T05:40:40;57.30;;;53.90;;
14187;SDS011;7175;51.978;5.330;2023-03-01T05:43:09;56.73;;;53.33;;
14187;SDS011;7175;51.978;5.330;2023-03-01T05:45:38;56.33;;;52.93;;
14187;SDS011;7175;51.978;5.330;2023-03-01T05:48:07;55.30;;;52.00;;
14187;SDS011;7175;51.978;5.330;2023-03-01T05:50:39;55.07;;;51.77;;
14187;SDS011;7175;51.978;5.330;2023-03-01T05:53:11;54.60;;;51.30;;
14187;SDS011;7175;51.978;5.330;2023-03-01T05:55:40;55.30;;;52.00;;
14187;SDS011;7175;51.978;5.330;2023-03-01T05:58:09;55.40;;;52.10;;
14187;SDS011;7175;51.978;5.330;2023-03-01T06:00:40;55.23;;;51.93;;
14187;SDS011;7175;51.978;5.330;2023-03-01T06:03:09;54.97;;;51.67;;
14187;SDS011;7175;51.978;5.330;2023-03-01T06:05:38;53.50;;;50.30;;
14187;SDS011;7175;51.978;5.330;2023-03-01T06:08:07;53.17;;;49.97;;
14187;SDS011;7175;51.978;5.330;2023-03-01T06:10:37;52.90;;;49.70;;
14187;SDS011;7175;51.978;5.330;2023-03-01T06:13:05;50.63;;;47.43;;
14187;SDS011;7175;51.978;5.330;2023-03-01T06:15:34;58.20;;;54.70;;
14187;SDS011;7175;51.978;5.330;2023-03-01T06:18:02;57.60;;;54.20;;
14187;SDS011;7175;51.978;5.330;2023-03-01T06:20:30;58.00;;;54.50;;
14187;SDS011;7175;51.978;5.330;2023-03-01T06:22:58;57.20;;;53.80;;
14187;SDS011;7175;51.978;5.330;2023-03-01T06:25:28;58.00;;;54.50;;
14187;SDS011;7175;51.978;5.330;2023-03-01T06:27:56;57.07;;;53.67;;
14187;SDS011;7175;51.978;5.330;2023-03-01T06:30:25;57.43;;;54.00;;
14187;SDS011;7175;51.978;5.330;2023-03-01T06:32:53;58.57;;;55.07;;
14187;SDS011;7175;51.978;5.330;2023-03-01T06:35:28;57.87;;;54.37;;
14187;SDS011;7175;51.978;5.330;2023-03-01T06:37:58;57.40;;;53.90;;
14187;SDS011;7175;51.978;5.330;2023-03-01T06:40:27;56.77;;;53.27;;
14187;SDS011;7175;51.978;5.330;2023-03-01T06:42:57;56.43;;;52.93;;
14187;SDS011;7175;51.978;5.330;2023-03-01T06:45:27;56.60;;;53.10;;
14187;SDS011;7175;51.978;5.330;2023-03-01T06:48:01;54.97;;;51.57;;
14187;SDS011;7175;51.978;5.330;2023-03-01T06:50:31;55.17;;;51.67;;
14187;SDS011;7175;51.978;5.330;2023-03-01T06:52:59;54.70;;;51.20;;
14187;SDS011;7175;51.978;5.330;2023-03-01T06:55:29;55.20;;;51.70;;
14187;SDS011;7175;51.978;5.330;2023-03-01T06:57:58;53.83;;;50.43;;
14187;SDS011;7175;51.978;5.330;2023-03-01T07:00:27;54.67;;;51.20;;
14187;SDS011;7175;51.978;5.330;2023-03-01T07:02:57;54.47;;;51.07;;
14187;SDS011;7175;51.978;5.330;2023-03-01T07:05:27;56.00;;;52.53;;
14187;SDS011;7175;51.978;5.330;2023-03-01T07:07:55;56.37;;;52.87;;
14187;SDS011;7175;51.978;5.330;2023-03-01T07:10:24;56.93;;;53.37;;
14187;SDS011;7175;51.978;5.330;2023-03-01T07:12:55;57.37;;;53.77;;
14187;SDS011;7175;51.978;5.330;2023-03-01T07:15:23;59.30;;;55.60;;
14187;SDS011;7175;51.978;5.330;2023-03-01T07:17:52;59.90;;;56.13;;
14187;SDS011;7175;51.978;5.330;2023-03-01T07:20:20;60.17;;;56.47;;
14187;SDS011;7175;51.978;5.330;2023-03-01T07:22:50;61.00;;;57.20;;
14187;SDS011;7175;51.978;5.330;2023-03-01T07:25:19;62.67;;;58.77;;
14187;SDS011;7175;51.978;5.330;2023-03-01T07:27:48;63.53;;;59.63;;
14187;SDS011;7175;51.978;5.330;2023-03-01T07:30:19;64.47;;;60.47;;
14187;SDS011;7175;51.978;5.330;2023-03-01T07:32:48;65.37;;;61.37;;
14187;SDS011;7175;51.978;5.330;2023-03-01T07:35:16;69.37;;;65.17;;
14187;SDS011;7175;51.978;5.330;2023-03-01T07:37:44;69.10;;;64.90;;
14187;SDS011;7175;51.978;5.330;2023-03-01T07:40:12;67.60;;;63.50;;
14187;SDS011;7175;51.978;5.330;2023-03-01T07:42:40;67.00;;;62.90;;
14187;SDS011;7175;51.978;5.330;2023-03-01T07:45:09;67.77;;;63.67;;
14187;SDS011;7175;51.978;5.330;2023-03-01T07:47:40;65.17;;;61.17;;
14187;SDS011;7175;51.978;5.330;2023-03-01T07:50:09;64.20;;;60.20;;
14187;SDS011;7175;51.978;5.330;2023-03-01T07:52:37;61.40;;;57.40;;
14187;SDS011;7175;51.978;5.330;2023-03-01T07:55:06;57.40;;;53.80;;
14187;SDS011;7175;51.978;5.330;2023-03-01T07:57:34;55.70;;;52.20;;
14187;SDS011;7175;51.978;5.330;2023-03-01T08:00:03;53.77;;;50.37;;
14187;SDS011;7175;51.978;5.330;2023-03-01T08:02:32;50.37;;;47.07;;
14187;SDS011;7175;51.978;5.330;2023-03-01T08:05:02;50.93;;;47.63;;
14187;SDS011;7175;51.978;5.330;2023-03-01T08:07:31;49.43;;;46.23;;
14187;SDS011;7175;51.978;5.330;2023-03-01T08:10:00;48.90;;;45.73;;
14187;SDS011;7175;51.978;5.330;2023-03-01T08:12:28;47.33;;;44.23;;
14187;SDS011;7175;51.978;5.330;2023-03-01T08:14:56;38.43;;;35.83;;
14187;SDS011;7175;51.978;5.330;2023-03-01T08:17:25;35.07;;;32.57;;
14187;SDS011;7175;51.978;5.330;2023-03-01T08:19:54;33.03;;;30.73;;
14187;SDS011;7175;51.978;5.330;2023-03-01T08:22:23;32.77;;;30.47;;
14187;SDS011;7175;51.978;5.330;2023-03-01T08:24:51;30.20;;;28.00;;
14187;SDS011;7175;51.978;5.330;2023-03-01T08:27:22;25.40;;;23.50;;
14187;SDS011;7175;51.978;5.330;2023-03-01T08:29:51;25.00;;;23.10;;
14187;SDS011;7175;51.978;5.330;2023-03-01T08:32:19;23.10;;;21.30;;
14187;SDS011;7175;51.978;5.330;2023-03-01T08:34:47;23.23;;;21.43;;
14187;SDS011;7175;51.978;5.330;2023-03-01T08:37:15;22.73;;;20.93;;
14187;SDS011;7175;51.978;5.330;2023-03-01T08:39:45;22.40;;;20.70;;
14187;SDS011;7175;51.978;5.330;2023-03-01T08:42:14;21.67;;;20.07;;
14187;SDS011;7175;51.978;5.330;2023-03-01T08:44:42;22.13;;;20.43;;
14187;SDS011;7175;51.978;5.330;2023-03-01T08:47:12;21.60;;;20.00;;
14187;SDS011;7175;51.978;5.330;2023-03-01T08:49:41;20.60;;;19.07;;
14187;SDS011;7175;51.978;5.330;2023-03-01T08:52:09;20.47;;;18.97;;
14187;SDS011;7175;51.978;5.330;2023-03-01T08:54:37;22.60;;;20.90;;
14187;SDS011;7175;51.978;5.330;2023-03-01T08:57:07;20.33;;;18.83;;
14187;SDS011;7175;51.978;5.330;2023-03-01T08:59:36;20.33;;;18.83;;
14187;SDS011;7175;51.978;5.330;2023-03-01T09:02:04;20.20;;;18.70;;
14187;SDS011;7175;51.978;5.330;2023-03-01T09:04:33;20.07;;;18.50;;
14187;SDS011;7175;51.978;5.330;2023-03-01T09:07:02;20.67;;;18.97;;
14187;SDS011;7175;51.978;5.330;2023-03-01T09:09:30;19.30;;;17.80;;
14187;SDS011;7175;51.978;5.330;2023-03-01T09:11:58;19.37;;;17.87;;
14187;SDS011;7175;51.978;5.330;2023-03-01T09:14:28;19.30;;;17.80;;
14187;SDS011;7175;51.978;5.330;2023-03-01T09:16:56;19.30;;;17.80;;
14187;SDS011;7175;51.978;5.330;2023-03-01T09:19:24;19.00;;;17.50;;
14187;SDS011;7175;51.978;5.330;2023-03-01T09:21:52;19.90;;;18.40;;
14187;SDS011;7175;51.978;5.330;2023-03-01T09:24:23;19.40;;;17.97;;
14187;SDS011;7175;51.978;5.330;2023-03-01T09:26:53;19.37;;;17.87;;
14187;SDS011;7175;51.978;5.330;2023-03-01T09:29:22;19.67;;;18.17;;
14187;SDS011;7175;51.978;5.330;2023-03-01T09:31:53;19.70;;;18.20;;
14187;SDS011;7175;51.978;5.330;2023-03-01T09:34:22;20.13;;;18.63;;
14187;SDS011;7175;51.978;5.330;2023-03-01T09:36:50;19.23;;;17.83;;
14187;SDS011;7175;51.978;5.330;2023-03-01T09:39:19;19.60;;;18.20;;
14187;SDS011;7175;51.978;5.330;2023-03-01T09:41:49;19.60;;;18.10;;
14187;SDS011;7175;51.978;5.330;2023-03-01T09:44:25;21.43;;;19.73;;
14187;SDS011;7175;51.978;5.330;2023-03-01T09:47:00;19.63;;;18.13;;
14187;SDS011;7175;51.978;5.330;2023-03-01T09:49:30;19.53;;;18.03;;
14187;SDS011;7175;51.978;5.330;2023-03-01T09:52:00;19.67;;;18.17;;
14187;SDS011;7175;51.978;5.330;2023-03-01T09:54:37;19.40;;;18.00;;
14187;SDS011;7175;51.978;5.330;2023-03-01T09:57:06;19.23;;;17.83;;
14187;SDS011;7175;51.978;5.330;2023-03-01T09:59:49;19.17;;;17.77;;
14187;SDS011;7175;51.978;5.330;2023-03-01T10:02:30;18.60;;;17.20;;
14187;SDS011;7175;51.978;5.330;2023-03-01T10:05:11;18.67;;;17.27;;
14187;SDS011;7175;51.978;5.330;2023-03-01T10:07:53;18.60;;;17.20;;
14187;SDS011;7175;51.978;5.330;2023-03-01T10:10:28;18.70;;;17.30;;
14187;SDS011;7175;51.978;5.330;2023-03-01T10:13:10;19.40;;;18.00;;
14187;SDS011;7175;51.978;5.330;2023-03-01T10:15:45;19.47;;;18.00;;
14187;SDS011;7175;51.978;5.330;2023-03-01T10:18:23;18.97;;;17.57;;
14187;SDS011;7175;51.978;5.330;2023-03-01T10:20:55;19.47;;;18.00;;
14187;SDS011;7175;51.978;5.330;2023-03-01T10:23:26;19.13;;;17.73;;
14187;SDS011;7175;51.978;5.330;2023-03-01T10:26:02;19.30;;;17.90;;
14187;SDS011;7175;51.978;5.330;2023-03-01T10:28:43;19.00;;;17.60;;
14187;SDS011;7175;51.978;5.330;2023-03-01T10:31:19;19.53;;;18.03;;
14187;SDS011;7175;51.978;5.330;2023-03-01T10:33:54;19.23;;;17.73;;
14187;SDS011;7175;51.978;5.330;2023-03-01T10:36:23;19.50;;;18.00;;
14187;SDS011;7175;51.978;5.330;2023-03-01T10:38:52;19.30;;;17.80;;
14187;SDS011;7175;51.978;5.330;2023-03-01T10:41:23;19.30;;;17.80;;
14187;SDS011;7175;51.978;5.330;2023-03-01T10:43:54;19.07;;;17.67;;
14187;SDS011;7175;51.978;5.330;2023-03-01T10:46:24;18.80;;;17.40;;
14187;SDS011;7175;51.978;5.330;2023-03-01T10:49:10;18.73;;;17.33;;
14187;SDS011;7175;51.978;5.330;2023-03-01T10:51:42;18.80;;;17.40;;
14187;SDS011;7175;51.978;5.330;2023-03-01T10:54:16;19.77;;;18.27;;
14187;SDS011;7175;51.978;5.330;2023-03-01T10:56:47;18.60;;;17.20;;
14187;SDS011;7175;51.978;5.330;2023-03-01T10:59:22;18.60;;;17.20;;
14187;SDS011;7175;51.978;5.330;2023-03-01T11:02:08;20.13;;;17.70;;
14187;SDS011;7175;51.978;5.330;2023-03-01T11:04:59;19.40;;;17.90;;
14187;SDS011;7175;51.978;5.330;2023-03-01T11:07:29;19.00;;;17.50;;
14187;SDS011;7175;51.978;5.330;2023-03-01T11:09:57;19.40;;;17.90;;
14187;SDS011;7175;51.978;5.330;2023-03-01T11:12:25;19.10;;;17.60;;
14187;SDS011;7175;51.978;5.330;2023-03-01T11:14:56;19.30;;;17.80;;
14187;SDS011;7175;51.978;5.330;2023-03-01T11:17:26;19.30;;;17.80;;
14187;SDS011;7175;51.978;5.330;2023-03-01T11:20:06;19.73;;;18.23;;
14187;SDS011;7175;51.978;5.330;2023-03-01T11:22:46;19.20;;;17.70;;
14187;SDS011;7175;51.978;5.330;2023-03-01T11:25:17;19.20;;;17.70;;
14187;SDS011;7175;51.978;5.330;2023-03-01T11:27:47;19.03;;;17.60;;
14187;SDS011;7175;51.978;5.330;2023-03-01T11:30:16;19.77;;;18.27;;
14187;SDS011;7175;51.978;5.330;2023-03-01T11:32:50;18.60;;;17.20;;
14187;SDS011;7175;51.978;5.330;2023-03-01T11:35:28;18.93;;;17.53;;
14187;SDS011;7175;51.978;5.330;2023-03-01T11:38:02;19.80;;;18.10;;
14187;SDS011;7175;51.978;5.330;2023-03-01T11:40:43;18.93;;;17.43;;
14187;SDS011;7175;51.978;5.330;2023-03-01T11:43:15;18.83;;;17.33;;
14187;SDS011;7175;51.978;5.330;2023-03-01T11:45:54;18.43;;;16.93;;
14187;SDS011;7175;51.978;5.330;2023-03-01T11:48:44;18.03;;;16.63;;
14187;SDS011;7175;51.978;5.330;2023-03-01T11:51:27;18.63;;;17.13;;
14187;SDS011;7175;51.978;5.330;2023-03-01T11:54:09;18.67;;;17.17;;
14187;SDS011;7175;51.978;5.330;2023-03-01T11:56:46;19.67;;;18.17;;
14187;SDS011;7175;51.978;5.330;2023-03-01T11:59:21;18.73;;;17.23;;
14187;SDS011;7175;51.978;5.330;2023-03-01T12:02:18;18.43;;;17.03;;
14187;SDS011;7175;51.978;5.330;2023-03-01T12:05:17;18.87;;;17.43;;
14187;SDS011;7175;51.978;5.330;2023-03-01T12:07:55;18.63;;;17.23;;
14187;SDS011;7175;51.978;5.330;2023-03-01T12:10:28;18.57;;;17.17;;
14187;SDS011;7175;51.978;5.330;2023-03-01T12:13:10;18.60;;;17.20;;
14187;SDS011;7175;51.978;5.330;2023-03-01T12:16:11;19.17;;;17.67;;
14187;SDS011;7175;51.978;5.330;2023-03-01T12:19:14;18.50;;;17.10;;
14187;SDS011;7175;51.978;5.330;2023-03-01T12:21:56;18.13;;;16.73;;
14187;SDS011;7175;51.978;5.330;2023-03-01T12:24:39;18.90;;;17.30;;
14187;SDS011;7175;51.978;5.330;2023-03-01T12:30:40;18.03;;;16.63;;
14187;SDS011;7175;51.978;5.330;2023-03-01T12:33:21;18.00;;;16.60;;
14187;SDS011;7175;51.978;5.330;2023-03-01T12:35:59;19.57;;;18.07;;
14187;SDS011;7175;51.978;5.330;2023-03-01T12:38:50;18.40;;;16.90;;
14187;SDS011;7175;51.978;5.330;2023-03-01T12:41:35;18.90;;;17.50;;
14187;SDS011;7175;51.978;5.330;2023-03-01T12:44:12;18.67;;;17.27;;
14187;SDS011;7175;51.978;5.330;2023-03-01T12:47:05;18.20;;;16.80;;
14187;SDS011;7175;51.978;5.330;2023-03-01T12:49:41;18.30;;;16.90;;
14187;SDS011;7175;51.978;5.330;2023-03-01T12:52:15;18.60;;;17.20;;
14187;SDS011;7175;51.978;5.330;2023-03-01T12:54:50;18.40;;;17.00;;
14187;SDS011;7175;51.978;5.330;2023-03-01T12:57:24;18.40;;;17.00;;
14187;SDS011;7175;51.978;5.330;2023-03-01T13:00:06;18.33;;;16.93;;
14187;SDS011;7175;51.978;5.330;2023-03-01T13:02:48;18.77;;;17.30;;
14187;SDS011;7175;51.978;5.330;2023-03-01T13:05:26;17.97;;;16.57;;
14187;SDS011;7175;51.978;5.330;2023-03-01T13:08:04;18.20;;;16.80;;
14187;SDS011;7175;51.978;5.330;2023-03-01T13:10:39;19.30;;;17.80;;
14187;SDS011;7175;51.978;5.330;2023-03-01T13:13:20;20.00;;;18.40;;
14187;SDS011;7175;51.978;5.330;2023-03-01T13:15:49;19.90;;;18.40;;
14187;SDS011;7175;51.978;5.330;2023-03-01T13:18:28;18.30;;;16.90;;
14187;SDS011;7175;51.978;5.330;2023-03-01T13:20:59;20.17;;;18.67;;
14187;SDS011;7175;51.978;5.330;2023-03-01T13:23:30;20.77;;;19.13;;
14187;SDS011;7175;51.978;5.330;2023-03-01T13:34:40;19.60;;;18.10;;
14187;SDS011;7175;51.978;5.330;2023-03-01T13:37:23;18.20;;;16.80;;
14187;SDS011;7175;51.978;5.330;2023-03-01T13:39:56;17.93;;;16.53;;
14187;SDS011;7175;51.978;5.330;2023-03-01T13:42:32;18.23;;;16.83;;
14187;SDS011;7175;51.978;5.330;2023-03-01T13:45:16;18.00;;;16.60;;
14187;SDS011;7175;51.978;5.330;2023-03-01T13:47:48;18.10;;;16.70;;
14187;SDS011;7175;51.978;5.330;2023-03-01T13:50:22;18.60;;;17.10;;
14187;SDS011;7175;51.978;5.330;2023-03-01T13:52:55;17.60;;;16.20;;
14187;SDS011;7175;51.978;5.330;2023-03-01T13:55:27;18.20;;;16.80;;
14187;SDS011;7175;51.978;5.330;2023-03-01T13:58:03;17.30;;;15.90;;
14187;SDS011;7175;51.978;5.330;2023-03-01T14:00:43;17.57;;;16.17;;
14187;SDS011;7175;51.978;5.330;2023-03-01T14:03:13;18.10;;;16.70;;
14187;SDS011;7175;51.978;5.330;2023-03-01T14:05:43;18.00;;;16.57;;
14187;SDS011;7175;51.978;5.330;2023-03-01T14:08:38;17.83;;;16.43;;
14187;SDS011;7175;51.978;5.330;2023-03-01T14:11:20;18.03;;;16.63;;
14187;SDS011;7175;51.978;5.330;2023-03-01T14:14:14;18.07;;;16.67;;
14187;SDS011;7175;51.978;5.330;2023-03-01T14:17:04;18.17;;;16.77;;
14187;SDS011;7175;51.978;5.330;2023-03-01T14:19:42;18.50;;;16.90;;
14187;SDS011;7175;51.978;5.330;2023-03-01T14:22:14;17.83;;;16.43;;
14187;SDS011;7175;51.978;5.330;2023-03-01T14:24:48;18.20;;;16.80;;
14187;SDS011;7175;51.978;5.330;2023-03-01T14:27:18;18.20;;;16.80;;
14187;SDS011;7175;51.978;5.330;2023-03-01T14:29:53;18.40;;;17.00;;
14187;SDS011;7175;51.978;5.330;2023-03-01T14:32:25;17.87;;;16.47;;
14187;SDS011;7175;51.978;5.330;2023-03-01T14:34:55;18.20;;;16.80;;
14187;SDS011;7175;51.978;5.330;2023-03-01T14:37:25;17.90;;;16.50;;
14187;SDS011;7175;51.978;5.330;2023-03-01T14:39:56;17.90;;;16.50;;
14187;SDS011;7175;51.978;5.330;2023-03-01T14:42:27;18.20;;;16.80;;
14187;SDS011;7175;51.978;5.330;2023-03-01T14:44:58;18.20;;;16.80;;
14187;SDS011;7175;51.978;5.330;2023-03-01T14:47:30;17.97;;;16.57;;
14187;SDS011;7175;51.978;5.330;2023-03-01T14:50:01;18.03;;;16.63;;
14187;SDS011;7175;51.978;5.330;2023-03-01T14:52:33;18.03;;;16.63;;
14187;SDS011;7175;51.978;5.330;2023-03-01T14:55:04;18.00;;;16.60;;
14187;SDS011;7175;51.978;5.330;2023-03-01T14:57:34;18.00;;;16.60;;
14187;SDS011;7175;51.978;5.330;2023-03-01T15:00:03;18.57;;;17.07;;
14187;SDS011;7175;51.978;5.330;2023-03-01T15:02:37;18.23;;;16.83;;
14187;SDS011;7175;51.978;5.330;2023-03-01T15:05:06;18.90;;;17.30;;
14187;SDS011;7175;51.978;5.330;2023-03-01T15:07:37;17.90;;;16.50;;
14187;SDS011;7175;51.978;5.330;2023-03-01T15:10:14;17.77;;;16.37;;
14187;SDS011;7175;51.978;5.330;2023-03-01T15:12:46;17.70;;;16.30;;
14187;SDS011;7175;51.978;5.330;2023-03-01T15:18:14;31.03;;;18.10;;